sensor_id;sensor_type;location;lat;lon;timestamp;temperature;humidity
10722;DHT22;5412;59.450;18.124;2023-04-25T00:01:46;5.40;99.90
10722;DHT22;5412;59.450;18.124;2023-04-25T00:04:12;5.40;99.90
10722;DHT22;5412;59.450;18.124;2023-04-25T00:06:38;5.40;99.90
10722;DHT22;5412;59.450;18.124;2023-04-25T00:09:06;5.30;99.90
10722;DHT22;5412;59.450;18.124;2023-04-25T00:11:35;5.40;99.90
10722;DHT22;5412;59.450;18.124;2023-04-25T00:14:02;5.40;99.90
10722;DHT22;5412;59.450;18.124;2023-04-25T00:16:29;5.30;99.90
10722;DHT22;5412;59.450;18.124;2023-04-25T00:18:56;5.40;99.90
10722;DHT22;5412;59.450;18.124;2023-04-25T00:21:22;5.50;99.90
10722;DHT22;5412;59.450;18.124;2023-04-25T00:23:50;5.50;99.90
10722;DHT22;5412;59.450;18.124;2023-04-25T00:26:15;5.50;99.90
10722;DHT22;5412;59.450;18.124;2023-04-25T00:28:41;5.40;99.90
10722;DHT22;5412;59.450;18.124;2023-04-25T00:31:07;5.30;99.90
10722;DHT22;5412;59.450;18.124;2023-04-25T00:33:32;5.30;99.90
10722;DHT22;5412;59.450;18.124;2023-04-25T00:35:58;5.20;99.90
10722;DHT22;5412;59.450;18.124;2023-04-25T00:38:24;5.30;99.90
10722;DHT22;5412;59.450;18.124;2023-04-25T00:40:50;5.40;99.90
10722;DHT22;5412;59.450;18.124;2023-04-25T00:43:15;5.20;99.90
10722;DHT22;5412;59.450;18.124;2023-04-25T00:45:43;5.20;99.90
10722;DHT22;5412;59.450;18.124;2023-04-25T00:48:08;5.20;99.90
10722;DHT22;5412;59.450;18.124;2023-04-25T00:50:35;5.00;99.90
10722;DHT22;5412;59.450;18.124;2023-04-25T00:53:02;4.90;99.90
10722;DHT22;5412;59.450;18.124;2023-04-25T00:55:29;5.10;99.90
10722;DHT22;5412;59.450;18.124;2023-04-25T00:57:57;5.20;99.90
10722;DHT22;5412;59.450;18.124;2023-04-25T01:00:22;5.10;99.90
10722;DHT22;5412;59.450;18.124;2023-04-25T01:02:48;5.10;99.90
10722;DHT22;5412;59.450;18.124;2023-04-25T01:05:15;5.30;99.90
10722;DHT22;5412;59.450;18.124;2023-04-25T01:07:41;5.40;99.90
10722;DHT22;5412;59.450;18.124;2023-04-25T01:10:07;5.50;99.90
10722;DHT22;5412;59.450;18.124;2023-04-25T01:12:33;5.40;99.90
10722;DHT22;5412;59.450;18.124;2023-04-25T01:14:59;5.20;99.90
10722;DHT22;5412;59.450;18.124;2023-04-25T01:17:25;5.10;99.90
10722;DHT22;5412;59.450;18.124;2023-04-25T01:19:51;5.10;99.90
10722;DHT22;5412;59.450;18.124;2023-04-25T01:22:17;5.10;99.90
10722;DHT22;5412;59.450;18.124;2023-04-25T01:24:43;5.10;99.90
10722;DHT22;5412;59.450;18.124;2023-04-25T01:27:09;4.90;99.90
10722;DHT22;5412;59.450;18.124;2023-04-25T01:29:36;5.00;99.90
10722;DHT22;5412;59.450;18.124;2023-04-25T01:32:02;4.80;99.90
10722;DHT22;5412;59.450;18.124;2023-04-25T01:34:28;4.70;99.90
10722;DHT22;5412;59.450;18.124;2023-04-25T01:36:54;4.70;99.90
10722;DHT22;5412;59.450;18.124;2023-04-25T01:39:20;4.60;99.90
10722;DHT22;5412;59.450;18.124;2023-04-25T01:41:47;4.60;99.90
10722;DHT22;5412;59.450;18.124;2023-04-25T01:44:13;4.70;99.90
10722;DHT22;5412;59.450;18.124;2023-04-25T01:46:39;4.70;99.90
10722;DHT22;5412;59.450;18.124;2023-04-25T01:49:05;4.70;99.90
10722;DHT22;5412;59.450;18.124;2023-04-25T01:51:31;4.70;99.90
10722;DHT22;5412;59.450;18.124;2023-04-25T01:53:57;4.60;99.90
10722;DHT22;5412;59.450;18.124;2023-04-25T01:56:23;4.50;99.90
10722;DHT22;5412;59.450;18.124;2023-04-25T01:58:49;4.60;99.90
10722;DHT22;5412;59.450;18.124;2023-04-25T02:01:14;4.40;99.90
10722;DHT22;5412;59.450;18.124;2023-04-25T02:03:40;4.50;99.90
10722;DHT22;5412;59.450;18.124;2023-04-25T02:06:06;4.50;99.90
10722;DHT22;5412;59.450;18.124;2023-04-25T02:08:32;4.40;99.90
10722;DHT22;5412;59.450;18.124;2023-04-25T02:10:58;4.50;99.90
10722;DHT22;5412;59.450;18.124;2023-04-25T02:13:23;4.50;99.90
10722;DHT22;5412;59.450;18.124;2023-04-25T02:15:49;4.50;99.90
10722;DHT22;5412;59.450;18.124;2023-04-25T02:18:15;4.60;99.90
10722;DHT22;5412;59.450;18.124;2023-04-25T02:20:43;4.70;99.90
10722;DHT22;5412;59.450;18.124;2023-04-25T02:23:09;4.70;99.90
10722;DHT22;5412;59.450;18.124;2023-04-25T02:25:35;4.60;99.90
10722;DHT22;5412;59.450;18.124;2023-04-25T02:28:01;4.70;99.90
10722;DHT22;5412;59.450;18.124;2023-04-25T02:30:27;4.60;99.90
10722;DHT22;5412;59.450;18.124;2023-04-25T02:32:52;4.50;99.90
10722;DHT22;5412;59.450;18.124;2023-04-25T02:35:18;4.60;99.90
10722;DHT22;5412;59.450;18.124;2023-04-25T02:37:44;4.50;99.90
10722;DHT22;5412;59.450;18.124;2023-04-25T02:40:10;4.60;99.90
10722;DHT22;5412;59.450;18.124;2023-04-25T02:42:36;4.60;99.90
10722;DHT22;5412;59.450;18.124;2023-04-25T02:45:02;4.60;99.90
10722;DHT22;5412;59.450;18.124;2023-04-25T02:47:28;4.70;99.90
10722;DHT22;5412;59.450;18.124;2023-04-25T02:49:54;4.70;99.90
10722;DHT22;5412;59.450;18.124;2023-04-25T02:52:20;4.80;99.90
10722;DHT22;5412;59.450;18.124;2023-04-25T02:54:46;4.70;99.90
10722;DHT22;5412;59.450;18.124;2023-04-25T02:57:12;4.80;99.90
10722;DHT22;5412;59.450;18.124;2023-04-25T02:59:38;4.80;99.90
10722;DHT22;5412;59.450;18.124;2023-04-25T03:02:04;4.80;99.90
10722;DHT22;5412;59.450;18.124;2023-04-25T03:04:29;4.70;99.90
10722;DHT22;5412;59.450;18.124;2023-04-25T03:06:55;4.70;99.90
10722;DHT22;5412;59.450;18.124;2023-04-25T03:09:21;4.70;99.90
10722;DHT22;5412;59.450;18.124;2023-04-25T03:11:47;4.60;99.90
10722;DHT22;5412;59.450;18.124;2023-04-25T03:14:13;4.60;99.90
10722;DHT22;5412;59.450;18.124;2023-04-25T03:16:39;4.50;99.90
10722;DHT22;5412;59.450;18.124;2023-04-25T03:19:05;4.50;99.90
10722;DHT22;5412;59.450;18.124;2023-04-25T03:21:35;4.60;99.90
10722;DHT22;5412;59.450;18.124;2023-04-25T03:24:02;4.60;99.90
10722;DHT22;5412;59.450;18.124;2023-04-25T03:26:28;4.60;99.90
10722;DHT22;5412;59.450;18.124;2023-04-25T03:28:54;4.50;99.90
10722;DHT22;5412;59.450;18.124;2023-04-25T03:31:20;4.50;99.90
10722;DHT22;5412;59.450;18.124;2023-04-25T03:33:46;4.40;99.90
10722;DHT22;5412;59.450;18.124;2023-04-25T03:36:12;4.60;99.90
10722;DHT22;5412;59.450;18.124;2023-04-25T03:38:37;4.50;99.90
10722;DHT22;5412;59.450;18.124;2023-04-25T03:41:03;4.60;99.90
10722;DHT22;5412;59.450;18.124;2023-04-25T03:43:29;4.60;99.90
10722;DHT22;5412;59.450;18.124;2023-04-25T03:45:54;4.70;99.90
10722;DHT22;5412;59.450;18.124;2023-04-25T03:48:20;4.70;99.90
10722;DHT22;5412;59.450;18.124;2023-04-25T03:50:53;4.80;99.90
10722;DHT22;5412;59.450;18.124;2023-04-25T03:53:19;4.80;99.90
10722;DHT22;5412;59.450;18.124;2023-04-25T03:55:45;4.70;99.90
10722;DHT22;5412;59.450;18.124;2023-04-25T03:58:10;4.80;99.90
10722;DHT22;5412;59.450;18.124;2023-04-25T04:00:36;4.70;99.90
10722;DHT22;5412;59.450;18.124;2023-04-25T04:03:02;4.80;99.90
10722;DHT22;5412;59.450;18.124;2023-04-25T04:05:28;4.90;99.90
10722;DHT22;5412;59.450;18.124;2023-04-25T04:07:54;5.00;99.90
10722;DHT22;5412;59.450;18.124;2023-04-25T04:10:21;5.00;99.90
10722;DHT22;5412;59.450;18.124;2023-04-25T04:12:47;5.10;99.90
10722;DHT22;5412;59.450;18.124;2023-04-25T04:15:13;5.10;99.90
10722;DHT22;5412;59.450;18.124;2023-04-25T04:17:39;5.10;99.90
10722;DHT22;5412;59.450;18.124;2023-04-25T04:20:06;5.00;99.90
10722;DHT22;5412;59.450;18.124;2023-04-25T04:22:33;4.90;99.90
10722;DHT22;5412;59.450;18.124;2023-04-25T04:24:58;5.00;99.90
10722;DHT22;5412;59.450;18.124;2023-04-25T04:27:24;4.80;99.90
10722;DHT22;5412;59.450;18.124;2023-04-25T04:29:50;4.90;99.90
10722;DHT22;5412;59.450;18.124;2023-04-25T04:32:17;4.90;99.90
10722;DHT22;5412;59.450;18.124;2023-04-25T04:34:43;4.90;99.90
10722;DHT22;5412;59.450;18.124;2023-04-25T04:37:10;5.00;99.90
10722;DHT22;5412;59.450;18.124;2023-04-25T04:39:38;4.90;99.90
10722;DHT22;5412;59.450;18.124;2023-04-25T04:42:04;5.00;99.90
10722;DHT22;5412;59.450;18.124;2023-04-25T04:44:30;5.00;99.90
10722;DHT22;5412;59.450;18.124;2023-04-25T04:47:00;5.00;99.90
10722;DHT22;5412;59.450;18.124;2023-04-25T04:49:25;5.00;99.90
10722;DHT22;5412;59.450;18.124;2023-04-25T04:51:51;5.10;99.90
10722;DHT22;5412;59.450;18.124;2023-04-25T04:54:17;5.00;99.90
10722;DHT22;5412;59.450;18.124;2023-04-25T04:56:43;5.10;99.90
10722;DHT22;5412;59.450;18.124;2023-04-25T04:59:09;5.10;99.90
10722;DHT22;5412;59.450;18.124;2023-04-25T05:01:36;5.30;99.90
10722;DHT22;5412;59.450;18.124;2023-04-25T05:04:01;5.40;99.90
10722;DHT22;5412;59.450;18.124;2023-04-25T05:06:29;5.50;99.90
10722;DHT22;5412;59.450;18.124;2023-04-25T05:08:55;5.60;99.90
10722;DHT22;5412;59.450;18.124;2023-04-25T05:11:22;5.40;99.90
10722;DHT22;5412;59.450;18.124;2023-04-25T05:13:50;5.60;99.90
10722;DHT22;5412;59.450;18.124;2023-04-25T05:16:16;5.60;99.90
10722;DHT22;5412;59.450;18.124;2023-04-25T05:18:42;5.80;99.90
10722;DHT22;5412;59.450;18.124;2023-04-25T05:21:08;5.80;99.90
10722;DHT22;5412;59.450;18.124;2023-04-25T05:23:33;5.70;99.90
10722;DHT22;5412;59.450;18.124;2023-04-25T05:25:59;5.60;99.90
10722;DHT22;5412;59.450;18.124;2023-04-25T05:28:25;5.60;99.90
10722;DHT22;5412;59.450;18.124;2023-04-25T05:30:51;5.60;99.90
10722;DHT22;5412;59.450;18.124;2023-04-25T05:33:18;5.50;99.90
10722;DHT22;5412;59.450;18.124;2023-04-25T05:35:43;5.50;99.90
10722;DHT22;5412;59.450;18.124;2023-04-25T05:38:09;5.40;99.90
10722;DHT22;5412;59.450;18.124;2023-04-25T05:40:35;5.40;99.90
10722;DHT22;5412;59.450;18.124;2023-04-25T05:43:01;5.60;99.90
10722;DHT22;5412;59.450;18.124;2023-04-25T05:45:27;5.60;99.90
10722;DHT22;5412;59.450;18.124;2023-04-25T05:47:53;5.60;99.90
10722;DHT22;5412;59.450;18.124;2023-04-25T05:50:18;5.70;99.90
10722;DHT22;5412;59.450;18.124;2023-04-25T05:52:44;5.80;99.90
10722;DHT22;5412;59.450;18.124;2023-04-25T05:55:10;5.80;99.90
10722;DHT22;5412;59.450;18.124;2023-04-25T05:57:36;5.80;99.90
10722;DHT22;5412;59.450;18.124;2023-04-25T06:00:02;5.80;99.90
10722;DHT22;5412;59.450;18.124;2023-04-25T06:02:28;5.80;99.90
10722;DHT22;5412;59.450;18.124;2023-04-25T06:04:54;5.80;99.90
10722;DHT22;5412;59.450;18.124;2023-04-25T06:07:20;5.90;99.90
10722;DHT22;5412;59.450;18.124;2023-04-25T06:09:45;5.80;99.90
10722;DHT22;5412;59.450;18.124;2023-04-25T06:12:11;5.70;99.90
10722;DHT22;5412;59.450;18.124;2023-04-25T06:14:37;5.90;99.90
10722;DHT22;5412;59.450;18.124;2023-04-25T06:17:03;5.90;99.90
10722;DHT22;5412;59.450;18.124;2023-04-25T06:19:34;6.00;99.90
10722;DHT22;5412;59.450;18.124;2023-04-25T06:22:01;6.00;99.90
10722;DHT22;5412;59.450;18.124;2023-04-25T06:24:27;6.10;99.90
10722;DHT22;5412;59.450;18.124;2023-04-25T06:26:53;6.10;99.90
10722;DHT22;5412;59.450;18.124;2023-04-25T06:29:18;6.10;99.90
10722;DHT22;5412;59.450;18.124;2023-04-25T06:31:44;6.10;99.90
10722;DHT22;5412;59.450;18.124;2023-04-25T06:34:10;6.30;99.90
10722;DHT22;5412;59.450;18.124;2023-04-25T06:36:36;6.30;99.90
10722;DHT22;5412;59.450;18.124;2023-04-25T06:39:02;6.20;99.90
10722;DHT22;5412;59.450;18.124;2023-04-25T06:41:28;6.30;99.90
10722;DHT22;5412;59.450;18.124;2023-04-25T06:43:54;6.40;99.90
10722;DHT22;5412;59.450;18.124;2023-04-25T06:46:19;6.40;99.90
10722;DHT22;5412;59.450;18.124;2023-04-25T06:48:45;6.50;99.90
10722;DHT22;5412;59.450;18.124;2023-04-25T06:51:11;6.60;99.90
10722;DHT22;5412;59.450;18.124;2023-04-25T06:53:38;6.60;99.90
10722;DHT22;5412;59.450;18.124;2023-04-25T06:56:04;6.60;99.90
10722;DHT22;5412;59.450;18.124;2023-04-25T06:58:30;6.70;99.90
10722;DHT22;5412;59.450;18.124;2023-04-25T07:00:56;6.60;99.90
10722;DHT22;5412;59.450;18.124;2023-04-25T07:03:22;6.70;99.90
10722;DHT22;5412;59.450;18.124;2023-04-25T07:05:48;6.70;99.90
10722;DHT22;5412;59.450;18.124;2023-04-25T07:08:13;6.80;99.90
10722;DHT22;5412;59.450;18.124;2023-04-25T07:10:39;6.60;99.90
10722;DHT22;5412;59.450;18.124;2023-04-25T07:13:05;6.60;99.90
10722;DHT22;5412;59.450;18.124;2023-04-25T07:15:31;6.60;99.90
10722;DHT22;5412;59.450;18.124;2023-04-25T07:17:57;6.80;99.90
10722;DHT22;5412;59.450;18.124;2023-04-25T07:20:22;6.80;99.90
10722;DHT22;5412;59.450;18.124;2023-04-25T07:22:48;6.80;99.90
10722;DHT22;5412;59.450;18.124;2023-04-25T07:25:15;6.90;99.90
10722;DHT22;5412;59.450;18.124;2023-04-25T07:27:41;7.00;99.90
10722;DHT22;5412;59.450;18.124;2023-04-25T07:30:07;7.10;99.90
10722;DHT22;5412;59.450;18.124;2023-04-25T07:32:33;7.30;99.90
10722;DHT22;5412;59.450;18.124;2023-04-25T07:34:59;7.30;99.90
10722;DHT22;5412;59.450;18.124;2023-04-25T07:37:25;7.40;99.90
10722;DHT22;5412;59.450;18.124;2023-04-25T07:39:51;7.20;99.90
10722;DHT22;5412;59.450;18.124;2023-04-25T07:42:17;7.40;99.90
10722;DHT22;5412;59.450;18.124;2023-04-25T07:44:43;7.40;99.90
10722;DHT22;5412;59.450;18.124;2023-04-25T07:47:09;7.60;99.90
10722;DHT22;5412;59.450;18.124;2023-04-25T07:49:36;7.70;99.90
10722;DHT22;5412;59.450;18.124;2023-04-25T07:52:03;7.90;99.90
10722;DHT22;5412;59.450;18.124;2023-04-25T07:54:30;8.00;99.90
10722;DHT22;5412;59.450;18.124;2023-04-25T07:56:56;8.00;99.90
10722;DHT22;5412;59.450;18.124;2023-04-25T07:59:22;7.90;99.90
10722;DHT22;5412;59.450;18.124;2023-04-25T08:01:48;7.90;99.90
10722;DHT22;5412;59.450;18.124;2023-04-25T08:04:14;8.00;99.90
10722;DHT22;5412;59.450;18.124;2023-04-25T08:06:39;8.20;99.90
10722;DHT22;5412;59.450;18.124;2023-04-25T08:09:06;8.10;99.90
10722;DHT22;5412;59.450;18.124;2023-04-25T08:11:33;8.20;99.90
10722;DHT22;5412;59.450;18.124;2023-04-25T08:13:58;8.10;99.90
10722;DHT22;5412;59.450;18.124;2023-04-25T08:16:24;7.90;99.90
10722;DHT22;5412;59.450;18.124;2023-04-25T08:18:50;8.00;99.90
10722;DHT22;5412;59.450;18.124;2023-04-25T08:21:16;8.00;99.90
10722;DHT22;5412;59.450;18.124;2023-04-25T08:23:42;8.10;99.90
10722;DHT22;5412;59.450;18.124;2023-04-25T08:26:07;8.20;99.90
10722;DHT22;5412;59.450;18.124;2023-04-25T08:28:33;8.40;99.90
10722;DHT22;5412;59.450;18.124;2023-04-25T08:30:59;8.30;99.90
10722;DHT22;5412;59.450;18.124;2023-04-25T08:33:25;8.50;99.90
10722;DHT22;5412;59.450;18.124;2023-04-25T08:35:51;8.50;99.90
10722;DHT22;5412;59.450;18.124;2023-04-25T08:38:18;8.70;99.90
10722;DHT22;5412;59.450;18.124;2023-04-25T08:40:44;8.60;99.90
10722;DHT22;5412;59.450;18.124;2023-04-25T08:43:13;8.60;99.90
10722;DHT22;5412;59.450;18.124;2023-04-25T08:45:40;8.50;99.90
10722;DHT22;5412;59.450;18.124;2023-04-25T08:48:11;8.70;99.90
10722;DHT22;5412;59.450;18.124;2023-04-25T08:50:47;8.70;99.90
10722;DHT22;5412;59.450;18.124;2023-04-25T08:53:16;8.60;99.90
10722;DHT22;5412;59.450;18.124;2023-04-25T08:55:45;8.70;99.90
10722;DHT22;5412;59.450;18.124;2023-04-25T08:58:12;8.80;99.90
10722;DHT22;5412;59.450;18.124;2023-04-25T09:00:39;8.90;99.90
10722;DHT22;5412;59.450;18.124;2023-04-25T09:03:05;9.00;99.90
10722;DHT22;5412;59.450;18.124;2023-04-25T09:05:32;9.00;99.90
10722;DHT22;5412;59.450;18.124;2023-04-25T09:07:58;8.90;99.90
10722;DHT22;5412;59.450;18.124;2023-04-25T09:10:26;9.10;99.90
10722;DHT22;5412;59.450;18.124;2023-04-25T09:13:14;9.20;99.90
10722;DHT22;5412;59.450;18.124;2023-04-25T09:15:54;9.10;99.90
10722;DHT22;5412;59.450;18.124;2023-04-25T09:20:49;9.00;99.90
10722;DHT22;5412;59.450;18.124;2023-04-25T09:23:15;9.10;99.90
10722;DHT22;5412;59.450;18.124;2023-04-25T09:25:40;9.00;99.90
10722;DHT22;5412;59.450;18.124;2023-04-25T09:28:08;9.00;99.90
10722;DHT22;5412;59.450;18.124;2023-04-25T09:30:36;8.90;99.90
10722;DHT22;5412;59.450;18.124;2023-04-25T09:33:10;9.10;99.90
10722;DHT22;5412;59.450;18.124;2023-04-25T09:35:45;9.20;99.90
10722;DHT22;5412;59.450;18.124;2023-04-25T09:38:12;9.20;99.90
10722;DHT22;5412;59.450;18.124;2023-04-25T09:40:46;9.30;99.90
10722;DHT22;5412;59.450;18.124;2023-04-25T09:43:24;9.40;99.90
10722;DHT22;5412;59.450;18.124;2023-04-25T09:45:53;9.60;99.90
10722;DHT22;5412;59.450;18.124;2023-04-25T09:48:21;9.70;99.90
10722;DHT22;5412;59.450;18.124;2023-04-25T09:53:41;9.80;99.90
10722;DHT22;5412;59.450;18.124;2023-04-25T09:56:09;9.90;99.90
10722;DHT22;5412;59.450;18.124;2023-04-25T09:58:36;9.90;99.90
10722;DHT22;5412;59.450;18.124;2023-04-25T10:01:04;10.00;99.90
10722;DHT22;5412;59.450;18.124;2023-04-25T10:03:33;10.10;99.90
10722;DHT22;5412;59.450;18.124;2023-04-25T10:06:01;10.00;99.90
10722;DHT22;5412;59.450;18.124;2023-04-25T10:08:35;9.80;99.90
10722;DHT22;5412;59.450;18.124;2023-04-25T10:11:07;9.90;99.90
10722;DHT22;5412;59.450;18.124;2023-04-25T10:13:34;10.10;99.90
10722;DHT22;5412;59.450;18.124;2023-04-25T10:16:04;10.00;99.90
10722;DHT22;5412;59.450;18.124;2023-04-25T10:18:31;10.00;99.90
10722;DHT22;5412;59.450;18.124;2023-04-25T10:21:01;10.10;99.90
10722;DHT22;5412;59.450;18.124;2023-04-25T10:23:30;10.00;99.90
10722;DHT22;5412;59.450;18.124;2023-04-25T10:25:56;10.10;99.90
10722;DHT22;5412;59.450;18.124;2023-04-25T10:28:22;10.20;99.90
10722;DHT22;5412;59.450;18.124;2023-04-25T10:31:04;10.30;99.90
10722;DHT22;5412;59.450;18.124;2023-04-25T10:33:38;10.00;99.90
10722;DHT22;5412;59.450;18.124;2023-04-25T10:38:36;10.10;99.90
10722;DHT22;5412;59.450;18.124;2023-04-25T10:41:07;10.20;99.90
10722;DHT22;5412;59.450;18.124;2023-04-25T10:43:43;10.30;99.90
10722;DHT22;5412;59.450;18.124;2023-04-25T10:46:26;10.50;99.90
10722;DHT22;5412;59.450;18.124;2023-04-25T10:48:59;10.60;99.90
10722;DHT22;5412;59.450;18.124;2023-04-25T10:51:36;10.50;99.90
10722;DHT22;5412;59.450;18.124;2023-04-25T10:54:03;10.50;99.90
10722;DHT22;5412;59.450;18.124;2023-04-25T10:56:31;10.60;99.90
10722;DHT22;5412;59.450;18.124;2023-04-25T10:59:16;10.70;99.90
10722;DHT22;5412;59.450;18.124;2023-04-25T11:01:48;10.60;99.90
10722;DHT22;5412;59.450;18.124;2023-04-25T11:09:24;10.90;99.90
10722;DHT22;5412;59.450;18.124;2023-04-25T11:11:56;11.10;99.90
10722;DHT22;5412;59.450;18.124;2023-04-25T11:14:22;11.10;99.90
10722;DHT22;5412;59.450;18.124;2023-04-25T11:16:55;11.10;99.90
10722;DHT22;5412;59.450;18.124;2023-04-25T11:19:21;11.00;99.90
10722;DHT22;5412;59.450;18.124;2023-04-25T11:21:47;11.00;99.90
10722;DHT22;5412;59.450;18.124;2023-04-25T11:24:13;11.00;99.90
10722;DHT22;5412;59.450;18.124;2023-04-25T11:26:43;11.00;99.90
10722;DHT22;5412;59.450;18.124;2023-04-25T11:29:09;11.20;99.90
10722;DHT22;5412;59.450;18.124;2023-04-25T11:31:35;11.20;99.90
10722;DHT22;5412;59.450;18.124;2023-04-25T11:34:00;11.30;99.90
10722;DHT22;5412;59.450;18.124;2023-04-25T11:36:26;11.20;99.90
10722;DHT22;5412;59.450;18.124;2023-04-25T11:38:53;11.20;99.90
10722;DHT22;5412;59.450;18.124;2023-04-25T11:41:20;11.20;99.90
10722;DHT22;5412;59.450;18.124;2023-04-25T11:43:48;11.00;99.90
10722;DHT22;5412;59.450;18.124;2023-04-25T11:46:17;11.10;99.90
10722;DHT22;5412;59.450;18.124;2023-04-25T11:48:45;11.00;99.90
10722;DHT22;5412;59.450;18.124;2023-04-25T11:51:12;10.90;99.90
10722;DHT22;5412;59.450;18.124;2023-04-25T11:53:41;10.80;99.90
10722;DHT22;5412;59.450;18.124;2023-04-25T11:56:11;10.90;99.90
10722;DHT22;5412;59.450;18.124;2023-04-25T11:58:59;11.10;99.90
10722;DHT22;5412;59.450;18.124;2023-04-25T12:01:36;11.20;99.90
10722;DHT22;5412;59.450;18.124;2023-04-25T12:04:29;10.80;99.90
10722;DHT22;5412;59.450;18.124;2023-04-25T12:06:56;10.70;99.90
10722;DHT22;5412;59.450;18.124;2023-04-25T12:09:31;10.80;99.90
10722;DHT22;5412;59.450;18.124;2023-04-25T12:11:58;10.80;99.90
10722;DHT22;5412;59.450;18.124;2023-04-25T12:16:52;10.90;99.90
10722;DHT22;5412;59.450;18.124;2023-04-25T12:19:20;10.80;99.90
10722;DHT22;5412;59.450;18.124;2023-04-25T12:21:47;10.80;99.90
10722;DHT22;5412;59.450;18.124;2023-04-25T12:26:53;11.00;99.90
10722;DHT22;5412;59.450;18.124;2023-04-25T12:29:26;11.00;99.90
10722;DHT22;5412;59.450;18.124;2023-04-25T12:31:53;10.90;99.90
10722;DHT22;5412;59.450;18.124;2023-04-25T12:34:20;11.10;99.90
10722;DHT22;5412;59.450;18.124;2023-04-25T12:36:47;11.20;99.90
10722;DHT22;5412;59.450;18.124;2023-04-25T12:39:16;11.30;99.90
10722;DHT22;5412;59.450;18.124;2023-04-25T12:41:43;11.30;99.90
10722;DHT22;5412;59.450;18.124;2023-04-25T12:44:10;11.50;99.90
10722;DHT22;5412;59.450;18.124;2023-04-25T12:46:36;11.50;99.90
10722;DHT22;5412;59.450;18.124;2023-04-25T12:49:03;11.30;99.90
10722;DHT22;5412;59.450;18.124;2023-04-25T12:51:29;11.50;99.90
10722;DHT22;5412;59.450;18.124;2023-04-25T12:53:55;11.40;99.90
10722;DHT22;5412;59.450;18.124;2023-04-25T12:56:21;11.40;99.90
10722;DHT22;5412;59.450;18.124;2023-04-25T12:58:47;11.40;99.90
10722;DHT22;5412;59.450;18.124;2023-04-25T13:01:14;11.40;99.90
10722;DHT22;5412;59.450;18.124;2023-04-25T13:03:40;11.40;99.90
10722;DHT22;5412;59.450;18.124;2023-04-25T13:06:06;11.30;99.90
10722;DHT22;5412;59.450;18.124;2023-04-25T13:08:32;11.40;99.90
10722;DHT22;5412;59.450;18.124;2023-04-25T13:10:58;11.50;99.90
10722;DHT22;5412;59.450;18.124;2023-04-25T13:13:24;11.40;99.90
10722;DHT22;5412;59.450;18.124;2023-04-25T13:15:50;11.30;99.90
10722;DHT22;5412;59.450;18.124;2023-04-25T13:18:15;11.30;99.90
10722;DHT22;5412;59.450;18.124;2023-04-25T13:20:41;11.20;99.90
10722;DHT22;5412;59.450;18.124;2023-04-25T13:23:07;11.20;99.90
10722;DHT22;5412;59.450;18.124;2023-04-25T13:25:32;11.20;99.90
10722;DHT22;5412;59.450;18.124;2023-04-25T13:27:59;11.20;99.90
10722;DHT22;5412;59.450;18.124;2023-04-25T13:30:25;11.20;99.90
10722;DHT22;5412;59.450;18.124;2023-04-25T13:32:51;11.20;99.90
10722;DHT22;5412;59.450;18.124;2023-04-25T13:35:17;11.40;99.90
10722;DHT22;5412;59.450;18.124;2023-04-25T13:37:43;11.30;99.90
10722;DHT22;5412;59.450;18.124;2023-04-25T13:40:10;11.40;99.90
10722;DHT22;5412;59.450;18.124;2023-04-25T13:42:37;11.50;99.90
10722;DHT22;5412;59.450;18.124;2023-04-25T13:45:03;11.60;99.90
10722;DHT22;5412;59.450;18.124;2023-04-25T13:47:29;11.60;99.90
10722;DHT22;5412;59.450;18.124;2023-04-25T13:49:56;11.50;99.90
10722;DHT22;5412;59.450;18.124;2023-04-25T13:52:22;11.50;99.90
10722;DHT22;5412;59.450;18.124;2023-04-25T13:54:49;11.50;99.90
10722;DHT22;5412;59.450;18.124;2023-04-25T13:57:16;11.60;99.90
10722;DHT22;5412;59.450;18.124;2023-04-25T13:59:41;11.50;99.90
10722;DHT22;5412;59.450;18.124;2023-04-25T14:02:08;11.40;99.90
10722;DHT22;5412;59.450;18.124;2023-04-25T14:04:33;11.50;99.90
10722;DHT22;5412;59.450;18.124;2023-04-25T14:06:59;11.50;99.90
10722;DHT22;5412;59.450;18.124;2023-04-25T14:09:25;11.60;99.90
10722;DHT22;5412;59.450;18.124;2023-04-25T14:11:52;11.60;99.90
10722;DHT22;5412;59.450;18.124;2023-04-25T14:14:19;11.60;99.90
10722;DHT22;5412;59.450;18.124;2023-04-25T14:16:47;11.60;99.90
10722;DHT22;5412;59.450;18.124;2023-04-25T14:19:17;11.60;99.90
10722;DHT22;5412;59.450;18.124;2023-04-25T14:21:43;11.60;99.90
10722;DHT22;5412;59.450;18.124;2023-04-25T14:24:09;11.70;99.90
10722;DHT22;5412;59.450;18.124;2023-04-25T14:26:36;11.60;99.90
10722;DHT22;5412;59.450;18.124;2023-04-25T14:29:04;11.60;99.90
10722;DHT22;5412;59.450;18.124;2023-04-25T14:31:31;11.60;99.90
10722;DHT22;5412;59.450;18.124;2023-04-25T14:33:57;11.60;99.90
10722;DHT22;5412;59.450;18.124;2023-04-25T14:36:23;11.70;99.90
10722;DHT22;5412;59.450;18.124;2023-04-25T14:38:48;11.60;99.90
10722;DHT22;5412;59.450;18.124;2023-04-25T14:41:15;11.50;99.90
10722;DHT22;5412;59.450;18.124;2023-04-25T14:43:41;11.60;99.90
10722;DHT22;5412;59.450;18.124;2023-04-25T14:46:06;11.60;99.90
10722;DHT22;5412;59.450;18.124;2023-04-25T14:48:33;11.60;99.90
10722;DHT22;5412;59.450;18.124;2023-04-25T14:50:59;11.70;99.90
10722;DHT22;5412;59.450;18.124;2023-04-25T14:53:26;11.80;99.90
10722;DHT22;5412;59.450;18.124;2023-04-25T14:55:52;11.90;99.90
10722;DHT22;5412;59.450;18.124;2023-04-25T14:58:19;12.50;99.90
10722;DHT22;5412;59.450;18.124;2023-04-25T15:00:45;13.50;99.90
10722;DHT22;5412;59.450;18.124;2023-04-25T15:03:11;14.10;99.90
10722;DHT22;5412;59.450;18.124;2023-04-25T15:05:39;13.90;99.90
10722;DHT22;5412;59.450;18.124;2023-04-25T15:08:05;13.70;99.90
10722;DHT22;5412;59.450;18.124;2023-04-25T15:10:31;13.50;99.90
10722;DHT22;5412;59.450;18.124;2023-04-25T15:12:57;13.50;99.90
10722;DHT22;5412;59.450;18.124;2023-04-25T15:15:23;13.50;99.90
10722;DHT22;5412;59.450;18.124;2023-04-25T15:17:49;13.40;99.90
10722;DHT22;5412;59.450;18.124;2023-04-25T15:20:16;13.40;99.90
10722;DHT22;5412;59.450;18.124;2023-04-25T15:22:43;13.40;99.90
10722;DHT22;5412;59.450;18.124;2023-04-25T15:25:11;13.30;99.90
10722;DHT22;5412;59.450;18.124;2023-04-25T15:27:39;12.80;99.90
10722;DHT22;5412;59.450;18.124;2023-04-25T15:30:08;12.80;99.90
10722;DHT22;5412;59.450;18.124;2023-04-25T15:32:36;12.50;99.90
10722;DHT22;5412;59.450;18.124;2023-04-25T15:35:06;12.40;99.90
10722;DHT22;5412;59.450;18.124;2023-04-25T15:37:32;12.20;99.90
10722;DHT22;5412;59.450;18.124;2023-04-25T15:40:07;12.00;99.90
10722;DHT22;5412;59.450;18.124;2023-04-25T15:42:43;12.00;99.90
10722;DHT22;5412;59.450;18.124;2023-04-25T15:45:09;12.10;99.90
10722;DHT22;5412;59.450;18.124;2023-04-25T15:47:37;12.30;99.90
10722;DHT22;5412;59.450;18.124;2023-04-25T15:50:05;12.40;99.90
10722;DHT22;5412;59.450;18.124;2023-04-25T15:52:32;12.30;99.90
10722;DHT22;5412;59.450;18.124;2023-04-25T15:54:57;12.20;99.90
10722;DHT22;5412;59.450;18.124;2023-04-25T15:57:23;12.00;99.90